sensor_id;sensor_type;location;lat;lon;timestamp;pressure;altitude;pressure_sealevel;temperature;humidity
36798;BME280;22748;8.426;99.512;2023-01-28T00:02:26;100638.06;;;27.55;67.15
36798;BME280;22748;8.426;99.512;2023-01-28T00:04:56;100638.88;;;27.55;66.57
36798;BME280;22748;8.426;99.512;2023-01-28T00:07:26;100647.94;;;27.54;66.93
36798;BME280;22748;8.426;99.512;2023-01-28T00:09:56;100654.34;;;27.53;67.08
36798;BME280;22748;8.426;99.512;2023-01-28T00:12:26;100653.53;;;27.53;66.87
36798;BME280;22748;8.426;99.512;2023-01-28T00:14:57;100659.91;;;27.52;67.24
36798;BME280;22748;8.426;99.512;2023-01-28T00:17:28;100666.09;;;27.52;67.22
36798;BME280;22748;8.426;99.512;2023-01-28T00:19:58;100672.06;;;27.54;67.03
36798;BME280;22748;8.426;99.512;2023-01-28T00:22:27;100670.44;;;27.53;67.25
36798;BME280;22748;8.426;99.512;2023-01-28T00:24:57;100672.69;;;27.49;67.45
36798;BME280;22748;8.426;99.512;2023-01-28T00:27:28;100676.41;;;27.48;67.55
36798;BME280;22748;8.426;99.512;2023-01-28T00:29:58;100679.28;;;27.47;67.53
36798;BME280;22748;8.426;99.512;2023-01-28T00:32:28;100686.28;;;27.48;67.16
36798;BME280;22748;8.426;99.512;2023-01-28T00:34:59;100693.72;;;27.46;67.37
36798;BME280;22748;8.426;99.512;2023-01-28T00:37:28;100692.06;;;27.45;67.30
36798;BME280;22748;8.426;99.512;2023-01-28T00:39:59;100694.09;;;27.43;67.78
36798;BME280;22748;8.426;99.512;2023-01-28T00:42:28;100698.47;;;27.44;67.50
36798;BME280;22748;8.426;99.512;2023-01-28T00:45:01;100705.66;;;27.43;67.88
36798;BME280;22748;8.426;99.512;2023-01-28T00:47:31;100714.31;;;27.45;67.81
36798;BME280;22748;8.426;99.512;2023-01-28T00:50:01;100715.19;;;27.46;67.55
36798;BME280;22748;8.426;99.512;2023-01-28T00:52:32;100731.28;;;27.46;67.72
36798;BME280;22748;8.426;99.512;2023-01-28T00:55:03;100733.09;;;27.45;67.60
36798;BME280;22748;8.426;99.512;2023-01-28T00:57:34;100744.88;;;27.44;67.89
36798;BME280;22748;8.426;99.512;2023-01-28T01:00:06;100738.69;;;27.44;68.35
36798;BME280;22748;8.426;99.512;2023-01-28T01:02:35;100739.50;;;27.44;68.50
36798;BME280;22748;8.426;99.512;2023-01-28T01:05:05;100739.50;;;27.44;68.52
36798;BME280;22748;8.426;99.512;2023-01-28T01:07:36;100741.16;;;27.45;67.93
36798;BME280;22748;8.426;99.512;2023-01-28T01:10:13;100752.72;;;27.46;67.99
36798;BME280;22748;8.426;99.512;2023-01-28T01:12:44;100756.03;;;27.48;67.90
36798;BME280;22748;8.426;99.512;2023-01-28T01:15:17;100759.56;;;27.48;67.79
36798;BME280;22748;8.426;99.512;2023-01-28T01:17:49;100763.06;;;27.49;68.00
36798;BME280;22748;8.426;99.512;2023-01-28T01:20:22;100764.69;;;27.50;67.81
36798;BME280;22748;8.426;99.512;2023-01-28T01:22:51;100770.06;;;27.50;68.18
36798;BME280;22748;8.426;99.512;2023-01-28T01:25:23;100774.22;;;27.53;68.27
36798;BME280;22748;8.426;99.512;2023-01-28T01:27:53;100768.88;;;27.53;68.04
36798;BME280;22748;8.426;99.512;2023-01-28T01:30:24;100775.06;;;27.53;68.11
36798;BME280;22748;8.426;99.512;2023-01-28T01:32:54;100765.34;;;27.52;68.34
36798;BME280;22748;8.426;99.512;2023-01-28T01:35:23;100770.91;;;27.51;68.14
36798;BME280;22748;8.426;99.512;2023-01-28T01:37:54;100774.41;;;27.51;68.57
36798;BME280;22748;8.426;99.512;2023-01-28T01:40:25;100770.69;;;27.52;68.79
36798;BME280;22748;8.426;99.512;2023-01-28T01:42:58;100773.19;;;27.54;68.69
36798;BME280;22748;8.426;99.512;2023-01-28T01:45:32;100786.41;;;27.55;68.63
36798;BME280;22748;8.426;99.512;2023-01-28T01:48:06;100783.72;;;27.55;68.55
36798;BME280;22748;8.426;99.512;2023-01-28T01:50:44;100782.06;;;27.54;68.56
36798;BME280;22748;8.426;99.512;2023-01-28T01:53:20;100781.44;;;27.52;69.00
36798;BME280;22748;8.426;99.512;2023-01-28T01:55:56;100780.59;;;27.52;69.13
36798;BME280;22748;8.426;99.512;2023-01-28T01:58:36;100781.44;;;27.52;68.91
36798;BME280;22748;8.426;99.512;2023-01-28T02:01:10;100783.50;;;27.57;68.84
36798;BME280;22748;8.426;99.512;2023-01-28T02:03:46;100785.00;;;27.59;69.03
36798;BME280;22748;8.426;99.512;2023-01-28T02:06:16;100779.22;;;27.62;68.82
36798;BME280;22748;8.426;99.512;2023-01-28T02:08:46;100782.72;;;27.63;69.08
36798;BME280;22748;8.426;99.512;2023-01-28T02:11:16;100776.34;;;27.64;68.77
36798;BME280;22748;8.426;99.512;2023-01-28T02:13:51;100778.00;;;27.65;68.33
36798;BME280;22748;8.426;99.512;2023-01-28T02:16:26;100774.31;;;27.66;68.31
36798;BME280;22748;8.426;99.512;2023-01-28T02:19:00;100775.94;;;27.67;68.77
36798;BME280;22748;8.426;99.512;2023-01-28T02:21:47;100766.44;;;27.64;68.24
36798;BME280;22748;8.426;99.512;2023-01-28T02:27:32;100773.47;;;27.65;68.41
36798;BME280;22748;8.426;99.512;2023-01-28T02:30:09;100785.03;;;27.66;68.24
36798;BME280;22748;8.426;99.512;2023-01-28T02:32:52;100774.69;;;27.63;68.60
36798;BME280;22748;8.426;99.512;2023-01-28T02:35:30;100780.06;;;27.63;68.05
36798;BME280;22748;8.426;99.512;2023-01-28T02:38:25;100775.13;;;27.66;68.21
36798;BME280;22748;8.426;99.512;2023-01-28T02:41:14;100766.03;;;27.67;68.36
36798;BME280;22748;8.426;99.512;2023-01-28T02:43:48;100763.16;;;27.69;68.39
36798;BME280;22748;8.426;99.512;2023-01-28T02:46:34;100769.34;;;27.69;68.33
36798;BME280;22748;8.426;99.512;2023-01-28T02:49:21;100763.63;;;27.73;67.74
36798;BME280;22748;8.426;99.512;2023-01-28T02:52:08;100760.53;;;27.76;67.74
36798;BME280;22748;8.426;99.512;2023-01-28T02:54:51;100761.97;;;27.78;67.21
36798;BME280;22748;8.426;99.512;2023-01-28T02:57:33;100762.81;;;27.79;67.50
36798;BME280;22748;8.426;99.512;2023-01-28T03:00:10;100760.78;;;27.81;67.75
36798;BME280;22748;8.426;99.512;2023-01-28T03:02:48;100768.25;;;27.85;67.89
36798;BME280;22748;8.426;99.512;2023-01-28T03:05:27;100761.47;;;27.89;68.04
36798;BME280;22748;8.426;99.512;2023-01-28T03:08:01;100759.38;;;27.92;67.56
36798;BME280;22748;8.426;99.512;2023-01-28T03:10:55;100758.56;;;27.91;67.72
36798;BME280;22748;8.426;99.512;2023-01-28T03:13:40;100758.38;;;27.93;67.67
36798;BME280;22748;8.426;99.512;2023-01-28T03:16:25;100756.13;;;27.96;67.31
36798;BME280;22748;8.426;99.512;2023-01-28T03:19:13;100748.91;;;27.97;66.81
36798;BME280;22748;8.426;99.512;2023-01-28T03:21:56;100747.25;;;28.02;67.22
36798;BME280;22748;8.426;99.512;2023-01-28T03:24:43;100739.00;;;28.04;66.53
36798;BME280;22748;8.426;99.512;2023-01-28T03:27:34;100738.81;;;28.05;67.08
36798;BME280;22748;8.426;99.512;2023-01-28T03:30:22;100741.91;;;28.09;66.87
36798;BME280;22748;8.426;99.512;2023-01-28T03:33:08;100738.22;;;28.10;66.10
36798;BME280;22748;8.426;99.512;2023-01-28T03:35:55;100738.00;;;28.12;66.34
36798;BME280;22748;8.426;99.512;2023-01-28T03:38:41;100731.59;;;28.13;65.40
36798;BME280;22748;8.426;99.512;2023-01-28T03:41:20;100727.28;;;28.12;65.78
36798;BME280;22748;8.426;99.512;2023-01-28T03:43:50;100724.19;;;28.15;65.57
36798;BME280;22748;8.426;99.512;2023-01-28T03:46:23;100732.84;;;28.17;65.37
36798;BME280;22748;8.426;99.512;2023-01-28T03:48:53;100727.06;;;28.20;65.63
36798;BME280;22748;8.426;99.512;2023-01-28T03:51:24;100726.25;;;28.19;65.94
36798;BME280;22748;8.426;99.512;2023-01-28T03:53:53;100726.25;;;28.19;64.86
36798;BME280;22748;8.426;99.512;2023-01-28T03:56:24;100720.50;;;28.22;65.14
36798;BME280;22748;8.426;99.512;2023-01-28T03:58:55;100709.75;;;28.22;65.15
36798;BME280;22748;8.426;99.512;2023-01-28T04:01:26;100714.72;;;28.25;65.07
36798;BME280;22748;8.426;99.512;2023-01-28T04:03:57;100699.03;;;28.29;64.92
36798;BME280;22748;8.426;99.512;2023-01-28T04:06:28;100704.78;;;28.33;65.44
36798;BME280;22748;8.426;99.512;2023-01-28T04:09:00;100699.41;;;28.26;65.30
36798;BME280;22748;8.426;99.512;2023-01-28T04:11:33;100699.66;;;28.31;65.26
36798;BME280;22748;8.426;99.512;2023-01-28T04:14:03;100693.66;;;28.36;65.79
36798;BME280;22748;8.426;99.512;2023-01-28T04:16:33;100689.53;;;28.40;64.36
36798;BME280;22748;8.426;99.512;2023-01-28T04:19:04;100681.25;;;28.41;64.40
36798;BME280;22748;8.426;99.512;2023-01-28T04:21:36;100672.81;;;28.44;64.95
36798;BME280;22748;8.426;99.512;2023-01-28T04:24:07;100674.88;;;28.42;63.68
36798;BME280;22748;8.426;99.512;2023-01-28T04:26:38;100671.31;;;28.35;64.09
36798;BME280;22748;8.426;99.512;2023-01-28T04:29:09;100672.56;;;28.33;64.10
36798;BME280;22748;8.426;99.512;2023-01-28T04:31:39;100660.59;;;28.35;64.81
36798;BME280;22748;8.426;99.512;2023-01-28T04:34:10;100651.50;;;28.36;64.54
36798;BME280;22748;8.426;99.512;2023-01-28T04:36:42;100646.13;;;28.36;63.66
36798;BME280;22748;8.426;99.512;2023-01-28T04:39:14;100647.78;;;28.37;63.56
36798;BME280;22748;8.426;99.512;2023-01-28T04:41:45;100638.91;;;28.30;62.52
36798;BME280;22748;8.426;99.512;2023-01-28T04:44:15;100626.09;;;28.39;62.17
36798;BME280;22748;8.426;99.512;2023-01-28T04:46:46;100625.06;;;28.46;62.19
36798;BME280;22748;8.426;99.512;2023-01-28T04:49:15;100623.44;;;28.52;61.27
36798;BME280;22748;8.426;99.512;2023-01-28T04:51:47;100620.34;;;28.48;61.19
36798;BME280;22748;8.426;99.512;2023-01-28T04:54:21;100614.75;;;28.50;61.12
36798;BME280;22748;8.426;99.512;2023-01-28T04:56:53;100615.59;;;28.50;61.03
36798;BME280;22748;8.426;99.512;2023-01-28T04:59:22;100606.50;;;28.51;61.79
36798;BME280;22748;8.426;99.512;2023-01-28T05:01:53;100596.53;;;28.45;60.76
36798;BME280;22748;8.426;99.512;2023-01-28T05:04:27;100588.94;;;28.56;60.04
36798;BME280;22748;8.426;99.512;2023-01-28T05:07:01;100587.69;;;28.65;59.88
36798;BME280;22748;8.426;99.512;2023-01-28T05:09:31;100576.72;;;28.73;60.24
36798;BME280;22748;8.426;99.512;2023-01-28T05:12:01;100571.97;;;28.75;60.70
36798;BME280;22748;8.426;99.512;2023-01-28T05:14:31;100571.97;;;28.75;59.79
36798;BME280;22748;8.426;99.512;2023-01-28T05:17:00;100554.16;;;28.74;60.79
36798;BME280;22748;8.426;99.512;2023-01-28T05:19:31;100552.94;;;28.77;60.56
36798;BME280;22748;8.426;99.512;2023-01-28T05:22:02;100545.72;;;28.70;60.03
36798;BME280;22748;8.426;99.512;2023-01-28T05:24:31;100536.81;;;28.70;60.03
36798;BME280;22748;8.426;99.512;2023-01-28T05:27:01;100529.38;;;28.72;60.39
36798;BME280;22748;8.426;99.512;2023-01-28T05:29:31;100524.81;;;28.79;60.29
36798;BME280;22748;8.426;99.512;2023-01-28T05:32:05;100520.44;;;28.91;60.33
36798;BME280;22748;8.426;99.512;2023-01-28T05:34:35;100520.41;;;28.98;60.25
36798;BME280;22748;8.426;99.512;2023-01-28T05:37:07;100507.16;;;29.03;60.00
36798;BME280;22748;8.426;99.512;2023-01-28T05:39:37;100507.78;;;29.05;59.21
36798;BME280;22748;8.426;99.512;2023-01-28T05:42:08;100501.97;;;29.08;59.71
36798;BME280;22748;8.426;99.512;2023-01-28T05:44:38;100502.16;;;29.07;59.42
36798;BME280;22748;8.426;99.512;2023-01-28T05:47:07;100498.47;;;29.08;59.89
36798;BME280;22748;8.426;99.512;2023-01-28T05:49:38;100488.16;;;29.11;59.86
36798;BME280;22748;8.426;99.512;2023-01-28T05:52:09;100482.72;;;29.05;59.58
36798;BME280;22748;8.426;99.512;2023-01-28T05:54:39;100486.47;;;29.04;60.08
36798;BME280;22748;8.426;99.512;2023-01-28T05:57:09;100481.34;;;28.96;60.48
36798;BME280;22748;8.426;99.512;2023-01-28T05:59:38;100477.00;;;28.95;60.37
36798;BME280;22748;8.426;99.512;2023-01-28T06:02:08;100477.78;;;29.02;59.88
36798;BME280;22748;8.426;99.512;2023-01-28T06:04:38;100470.34;;;29.04;59.53
36798;BME280;22748;8.426;99.512;2023-01-28T06:07:10;100471.16;;;29.11;59.38
36798;BME280;22748;8.426;99.512;2023-01-28T06:09:41;100455.63;;;29.06;59.79
36798;BME280;22748;8.426;99.512;2023-01-28T06:12:12;100465.81;;;28.98;59.85
36798;BME280;22748;8.426;99.512;2023-01-28T06:14:43;100463.34;;;28.89;60.15
36798;BME280;22748;8.426;99.512;2023-01-28T06:17:14;100454.69;;;28.94;60.43
36798;BME280;22748;8.426;99.512;2023-01-28T06:19:44;100463.72;;;29.06;60.86
36798;BME280;22748;8.426;99.512;2023-01-28T06:22:16;100455.63;;;29.13;60.75
36798;BME280;22748;8.426;99.512;2023-01-28T06:24:45;100448.19;;;29.15;61.37
36798;BME280;22748;8.426;99.512;2023-01-28T06:27:15;100447.81;;;29.11;61.23
36798;BME280;22748;8.426;99.512;2023-01-28T06:29:44;100450.88;;;29.15;61.25
36798;BME280;22748;8.426;99.512;2023-01-28T06:32:17;100458.72;;;29.17;61.27
36798;BME280;22748;8.426;99.512;2023-01-28T06:34:50;100443.88;;;29.07;61.90
36798;BME280;22748;8.426;99.512;2023-01-28T06:37:21;100451.31;;;29.12;61.16
36798;BME280;22748;8.426;99.512;2023-01-28T06:39:51;100445.09;;;29.05;61.72
36798;BME280;22748;8.426;99.512;2023-01-28T06:42:22;100448.84;;;29.04;60.93
36798;BME280;22748;8.426;99.512;2023-01-28T06:44:53;100446.34;;;29.02;60.36
36798;BME280;22748;8.426;99.512;2023-01-28T06:47:26;100444.50;;;29.03;60.76
36798;BME280;22748;8.426;99.512;2023-01-28T06:49:58;100451.53;;;29.04;59.91
36798;BME280;22748;8.426;99.512;2023-01-28T06:52:30;100441.22;;;29.01;58.78
36798;BME280;22748;8.426;99.512;2023-01-28T06:55:00;100444.50;;;29.03;58.89
36798;BME280;22748;8.426;99.512;2023-01-28T06:57:31;100437.72;;;28.93;59.44
36798;BME280;22748;8.426;99.512;2023-01-28T07:00:00;100441.91;;;28.76;59.30
36798;BME280;22748;8.426;99.512;2023-01-28T07:02:31;100445.03;;;28.73;60.09
36798;BME280;22748;8.426;99.512;2023-01-28T07:05:00;100432.44;;;28.67;60.21
36798;BME280;22748;8.426;99.512;2023-01-28T07:07:32;100432.22;;;28.75;59.95
36798;BME280;22748;8.426;99.512;2023-01-28T07:10:03;100415.50;;;28.66;60.24
36798;BME280;22748;8.426;99.512;2023-01-28T07:12:34;100427.13;;;28.54;60.20
36798;BME280;22748;8.426;99.512;2023-01-28T07:15:05;100419.03;;;28.60;60.38
36798;BME280;22748;8.426;99.512;2023-01-28T07:17:38;100416.34;;;28.60;59.87
36798;BME280;22748;8.426;99.512;2023-01-28T07:20:10;100417.78;;;28.63;60.19
36798;BME280;22748;8.426;99.512;2023-01-28T07:22:44;100412.41;;;28.63;60.39
36798;BME280;22748;8.426;99.512;2023-01-28T07:25:15;100406.19;;;28.69;60.35
36798;BME280;22748;8.426;99.512;2023-01-28T07:27:49;100407.41;;;28.73;59.71
36798;BME280;22748;8.426;99.512;2023-01-28T07:30:21;100412.25;;;28.44;60.85
36798;BME280;22748;8.426;99.512;2023-01-28T07:32:56;100405.63;;;28.47;60.88
36798;BME280;22748;8.426;99.512;2023-01-28T07:35:25;100406.66;;;28.59;60.72
36798;BME280;22748;8.426;99.512;2023-01-28T07:37:59;100407.66;;;28.65;60.23
36798;BME280;22748;8.426;99.512;2023-01-28T07:40:29;100401.81;;;28.81;60.13
36798;BME280;22748;8.426;99.512;2023-01-28T07:42:59;100403.41;;;28.89;60.02
36798;BME280;22748;8.426;99.512;2023-01-28T07:45:29;100407.31;;;28.93;59.68
36798;BME280;22748;8.426;99.512;2023-01-28T07:48:00;100403.00;;;28.92;59.99
36798;BME280;22748;8.426;99.512;2023-01-28T07:50:30;100403.81;;;28.92;60.10
36798;BME280;22748;8.426;99.512;2023-01-28T07:53:07;100395.72;;;28.99;60.22
36798;BME280;22748;8.426;99.512;2023-01-28T07:55:40;100400.47;;;28.97;60.58
36798;BME280;22748;8.426;99.512;2023-01-28T07:58:12;100394.66;;;29.00;59.80
36798;BME280;22748;8.426;99.512;2023-01-28T08:00:42;100395.53;;;28.94;60.30
36798;BME280;22748;8.426;99.512;2023-01-28T08:03:13;100400.94;;;28.87;60.60
36798;BME280;22748;8.426;99.512;2023-01-28T08:05:43;100405.69;;;28.92;60.64
36798;BME280;22748;8.426;99.512;2023-01-28T08:08:17;100418.88;;;28.93;61.56
36798;BME280;22748;8.426;99.512;2023-01-28T08:10:48;100416.47;;;28.85;62.14
36798;BME280;22748;8.426;99.512;2023-01-28T08:13:20;100419.41;;;28.77;62.02
36798;BME280;22748;8.426;99.512;2023-01-28T08:15:54;100421.31;;;28.57;63.04
36798;BME280;22748;8.426;99.512;2023-01-28T08:18:25;100418.44;;;28.51;63.38
36798;BME280;22748;8.426;99.512;2023-01-28T08:21:00;100421.72;;;28.60;63.63
36798;BME280;22748;8.426;99.512;2023-01-28T08:23:33;100423.97;;;28.63;63.54
36798;BME280;22748;8.426;99.512;2023-01-28T08:26:04;100425.84;;;28.63;63.52
36798;BME280;22748;8.426;99.512;2023-01-28T08:28:38;100422.53;;;28.67;63.19
36798;BME280;22748;8.426;99.512;2023-01-28T08:31:09;100423.78;;;28.65;63.55
36798;BME280;22748;8.426;99.512;2023-01-28T08:33:39;100431.22;;;28.63;63.62
36798;BME280;22748;8.426;99.512;2023-01-28T08:36:10;100429.56;;;28.68;63.25
36798;BME280;22748;8.426;99.512;2023-01-28T08:38:41;100435.31;;;28.72;63.39
36798;BME280;22748;8.426;99.512;2023-01-28T08:41:10;100426.00;;;28.81;63.32
36798;BME280;22748;8.426;99.512;2023-01-28T08:43:41;100434.69;;;28.77;63.61
36798;BME280;22748;8.426;99.512;2023-01-28T08:46:10;100437.97;;;28.79;63.96
36798;BME280;22748;8.426;99.512;2023-01-28T08:48:41;100427.63;;;28.82;64.15
36798;BME280;22748;8.426;99.512;2023-01-28T08:51:12;100433.19;;;28.87;64.26
36798;BME280;22748;8.426;99.512;2023-01-28T08:53:43;100433.22;;;28.81;64.16
36798;BME280;22748;8.426;99.512;2023-01-28T08:56:12;100426.19;;;28.80;64.72
36798;BME280;22748;8.426;99.512;2023-01-28T08:58:43;100438.00;;;28.72;64.95
36798;BME280;22748;8.426;99.512;2023-01-28T09:01:13;100438.50;;;28.42;65.65
36798;BME280;22748;8.426;99.512;2023-01-28T09:03:46;100440.75;;;28.52;65.67
36798;BME280;22748;8.426;99.512;2023-01-28T09:06:18;100449.06;;;28.50;65.87
36798;BME280;22748;8.426;99.512;2023-01-28T09:08:52;100439.94;;;28.51;65.92
36798;BME280;22748;8.426;99.512;2023-01-28T09:11:24;100448.63;;;28.54;66.13
36798;BME280;22748;8.426;99.512;2023-01-28T09:13:56;100448.19;;;28.43;66.60
36798;BME280;22748;8.426;99.512;2023-01-28T09:16:26;100443.66;;;28.37;67.50
36798;BME280;22748;8.426;99.512;2023-01-28T09:18:56;100446.13;;;28.45;66.85
36798;BME280;22748;8.426;99.512;2023-01-28T09:21:27;100443.44;;;28.39;67.08
36798;BME280;22748;8.426;99.512;2023-01-28T09:24:01;100440.97;;;28.37;67.54
36798;BME280;22748;8.426;99.512;2023-01-28T09:26:33;100435.41;;;28.39;66.89
36798;BME280;22748;8.426;99.512;2023-01-28T09:29:04;100444.91;;;28.48;66.94
36798;BME280;22748;8.426;99.512;2023-01-28T09:31:36;100445.94;;;28.40;67.02
36798;BME280;22748;8.426;99.512;2023-01-28T09:34:07;100445.75;;;28.15;67.34
36798;BME280;22748;8.426;99.512;2023-01-28T09:36:36;100440.81;;;28.05;68.30
36798;BME280;22748;8.426;99.512;2023-01-28T09:39:09;100441.66;;;27.99;67.72
36798;BME280;22748;8.426;99.512;2023-01-28T09:41:47;100434.66;;;28.05;67.41
36798;BME280;22748;8.426;99.512;2023-01-28T09:44:33;100433.59;;;28.13;67.42
36798;BME280;22748;8.426;99.512;2023-01-28T09:47:11;100431.72;;;28.13;67.01
36798;BME280;22748;8.426;99.512;2023-01-28T09:49:49;100428.00;;;28.21;67.18
36798;BME280;22748;8.426;99.512;2023-01-28T09:52:25;100430.25;;;28.30;67.49
36798;BME280;22748;8.426;99.512;2023-01-28T09:55:01;100424.66;;;28.39;67.04
36798;BME280;22748;8.426;99.512;2023-01-28T09:57:38;100427.13;;;28.47;67.13
36798;BME280;22748;8.426;99.512;2023-01-28T10:00:22;100430.84;;;28.52;67.34
36798;BME280;22748;8.426;99.512;2023-01-28T10:05:52;100446.09;;;28.59;66.63
36798;BME280;22748;8.426;99.512;2023-01-28T10:08:39;100449.41;;;28.61;67.12
36798;BME280;22748;8.426;99.512;2023-01-28T10:11:22;100451.91;;;28.56;66.46
36798;BME280;22748;8.426;99.512;2023-01-28T10:14:02;100452.13;;;28.54;66.65
36798;BME280;22748;8.426;99.512;2023-01-28T10:16:36;100449.63;;;28.52;66.72
36798;BME280;22748;8.426;99.512;2023-01-28T10:19:15;100466.59;;;28.53;66.48
36798;BME280;22748;8.426;99.512;2023-01-28T10:21:53;100470.94;;;28.54;66.77
36798;BME280;22748;8.426;99.512;2023-01-28T10:24:30;100470.72;;;28.56;66.70
36798;BME280;22748;8.426;99.512;2023-01-28T10:27:10;100475.03;;;28.57;66.75
36798;BME280;22748;8.426;99.512;2023-01-28T10:29:42;100478.34;;;28.59;67.24
36798;BME280;22748;8.426;99.512;2023-01-28T10:32:22;100475.91;;;28.57;66.75
36798;BME280;22748;8.426;99.512;2023-01-28T10:34:57;100484.16;;;28.56;66.96
36798;BME280;22748;8.426;99.512;2023-01-28T10:37:28;100492.84;;;28.51;66.75
36798;BME280;22748;8.426;99.512;2023-01-28T10:40:02;100492.41;;;28.47;66.73
36798;BME280;22748;8.426;99.512;2023-01-28T10:42:36;100491.41;;;28.48;67.23
36798;BME280;22748;8.426;99.512;2023-01-28T10:45:16;100508.16;;;28.50;67.27
36798;BME280;22748;8.426;99.512;2023-01-28T10:47:52;100503.16;;;28.47;67.19
36798;BME280;22748;8.426;99.512;2023-01-28T10:50:28;100514.75;;;28.48;67.20
36798;BME280;22748;8.426;99.512;2023-01-28T10:53:05;100512.25;;;28.46;67.33
36798;BME280;22748;8.426;99.512;2023-01-28T10:55:44;100524.63;;;28.47;67.42
36798;BME280;22748;8.426;99.512;2023-01-28T10:58:22;100525.06;;;28.44;67.08
36798;BME280;22748;8.426;99.512;2023-01-28T11:00:53;100525.06;;;28.44;67.38
36798;BME280;22748;8.426;99.512;2023-01-28T11:03:27;100531.06;;;28.46;67.36
36798;BME280;22748;8.426;99.512;2023-01-28T11:05:57;100531.06;;;28.46;67.33
36798;BME280;22748;8.426;99.512;2023-01-28T11:08:28;100536.44;;;28.46;67.33
36798;BME280;22748;8.426;99.512;2023-01-28T11:10:59;100539.13;;;28.46;67.32
36798;BME280;22748;8.426;99.512;2023-01-28T11:13:32;100545.31;;;28.47;67.52
36798;BME280;22748;8.426;99.512;2023-01-28T11:16:04;100548.19;;;28.45;67.44
36798;BME280;22748;8.426;99.512;2023-01-28T11:18:39;100553.56;;;28.45;67.50
36798;BME280;22748;8.426;99.512;2023-01-28T11:21:18;100551.06;;;28.44;67.60
36798;BME280;22748;8.426;99.512;2023-01-28T11:23:52;100558.56;;;28.42;67.67
36798;BME280;22748;8.426;99.512;2023-01-28T11:26:24;100557.69;;;28.41;67.83
36798;BME280;22748;8.426;99.512;2023-01-28T11:28:56;100572.19;;;28.40;67.55
36798;BME280;22748;8.426;99.512;2023-01-28T11:31:25;100564.94;;;28.41;67.53
36798;BME280;22748;8.426;99.512;2023-01-28T11:33:57;100572.19;;;28.40;67.63
36798;BME280;22748;8.426;99.512;2023-01-28T11:36:31;100583.31;;;28.37;67.13
36798;BME280;22748;8.426;99.512;2023-01-28T11:39:02;100594.50;;;28.34;67.09
36798;BME280;22748;8.426;99.512;2023-01-28T11:41:35;100593.25;;;28.30;67.11
36798;BME280;22748;8.426;99.512;2023-01-28T11:44:14;100601.09;;;28.25;67.18
36798;BME280;22748;8.426;99.512;2023-01-28T11:49:48;100597.38;;;28.19;67.49
36798;BME280;22748;8.426;99.512;2023-01-28T11:52:28;100603.97;;;28.17;66.98
36798;BME280;22748;8.426;99.512;2023-01-28T11:55:04;100603.16;;;28.16;67.31
36798;BME280;22748;8.426;99.512;2023-01-28T11:57:52;100613.06;;;28.16;67.45
36798;BME280;22748;8.426;99.512;2023-01-28T12:00:37;100622.16;;;28.15;67.39
36798;BME280;22748;8.426;99.512;2023-01-28T12:03:29;100628.56;;;28.14;67.22
36798;BME280;22748;8.426;99.512;2023-01-28T12:06:20;100625.88;;;28.14;67.03
36798;BME280;22748;8.426;99.512;2023-01-28T12:08:58;100638.25;;;28.15;67.36
36798;BME280;22748;8.426;99.512;2023-01-28T12:11:44;100632.47;;;28.18;66.96
36798;BME280;22748;8.426;99.512;2023-01-28T12:14:38;100633.09;;;28.20;66.98
36798;BME280;22748;8.426;99.512;2023-01-28T12:17:21;100641.78;;;28.22;67.25
36798;BME280;22748;8.426;99.512;2023-01-28T12:20:04;100643.63;;;28.21;66.99
36798;BME280;22748;8.426;99.512;2023-01-28T12:23:03;100645.69;;;28.19;66.73
36798;BME280;22748;8.426;99.512;2023-01-28T12:25:51;100654.56;;;28.20;66.29
36798;BME280;22748;8.426;99.512;2023-01-28T12:28:32;100657.25;;;28.20;66.64
36798;BME280;22748;8.426;99.512;2023-01-28T12:31:32;100662.00;;;28.18;66.51
36798;BME280;22748;8.426;99.512;2023-01-28T12:34:16;100671.72;;;28.19;66.43
36798;BME280;22748;8.426;99.512;2023-01-28T12:37:00;100662.00;;;28.18;65.78
36798;BME280;22748;8.426;99.512;2023-01-28T12:39:40;100659.75;;;28.15;65.86
36798;BME280;22748;8.426;99.512;2023-01-28T12:42:21;100667.78;;;28.15;66.03
36798;BME280;22748;8.426;99.512;2023-01-28T12:44:56;100670.66;;;28.13;65.99
36798;BME280;22748;8.426;99.512;2023-01-28T12:47:33;100682.25;;;28.14;65.78
36798;BME280;22748;8.426;99.512;2023-01-28T12:50:12;100668.59;;;28.15;65.81
36798;BME280;22748;8.426;99.512;2023-01-28T12:52:48;100687.22;;;28.17;65.51
36798;BME280;22748;8.426;99.512;2023-01-28T12:55:25;100691.97;;;28.15;65.65
36798;BME280;22748;8.426;99.512;2023-01-28T12:58:00;100694.63;;;28.15;65.68
36798;BME280;22748;8.426;99.512;2023-01-28T13:00:33;100693.00;;;28.14;65.84
36798;BME280;22748;8.426;99.512;2023-01-28T13:03:15;100694.00;;;28.13;65.73
36798;BME280;22748;8.426;99.512;2023-01-28T13:05:52;100697.75;;;28.12;65.55
36798;BME280;22748;8.426;99.512;2023-01-28T13:08:27;100695.88;;;28.12;65.33
36798;BME280;22748;8.426;99.512;2023-01-28T13:11:00;100700.19;;;28.13;65.36
36798;BME280;22748;8.426;99.512;2023-01-28T13:13:36;100699.38;;;28.13;65.81
36798;BME280;22748;8.426;99.512;2023-01-28T13:16:15;100700.19;;;28.13;65.55
36798;BME280;22748;8.426;99.512;2023-01-28T13:18:46;100695.69;;;28.14;65.42
36798;BME280;22748;8.426;99.512;2023-01-28T13:21:31;100690.69;;;28.10;65.49
36798;BME280;22748;8.426;99.512;2023-01-28T13:24:19;100695.44;;;28.08;65.74
36798;BME280;22748;8.426;99.512;2023-01-28T13:26:49;100695.66;;;28.07;65.54
36798;BME280;22748;8.426;99.512;2023-01-28T13:29:28;100698.53;;;28.05;65.31
36798;BME280;22748;8.426;99.512;2023-01-28T13:31:59;100699.56;;;28.04;65.34
36798;BME280;22748;8.426;99.512;2023-01-28T13:34:31;100707.63;;;28.04;65.58
36798;BME280;22748;8.426;99.512;2023-01-28T13:37:18;100710.53;;;28.03;65.63